Time;durP1;ratioP1;P1;durP2;ratioP2;P2;SDS_P1;SDS_P2;PMS_P1;PMS_P2;Temp;Humidity;BMP_temperature;BMP_pressure;BME280_temperature;BME280_humidity;BME280_pressure;Samples;Min_cycle;Max_cycle;Signal;HPM_P1;HPM_P2
2021/07/28 00:00:00;;;;;;;;;;;;;;;;;;1033899;28;20027;-80
2021/07/28 00:00:30;;;;;;;;;;;;;;;;;;1033929;28;19906;-80
2021/07/28 00:01:00;;;;;;;;;;;;;;;;;;1038217;28;19977;-79
2021/07/28 00:01:31;;;;;;;;;;;;;;;;;;1034103;28;19920;-79
2021/07/28 00:02:01;;;;;;;;;;;;;;;;;;1034293;28;19910;-79
2021/07/28 00:02:31;;;;;;;;;;;;;;;;;;1037573;28;19952;-79
2021/07/28 00:03:01;;;;;;;;;;;;;;;;;;1037783;28;19909;-79
2021/07/28 00:03:32;;;;;;;;;;;;;;;;;;1033374;28;19913;-79
2021/07/28 00:04:02;;;;;;;;;;;;;;;;;;1033585;28;20327;-79
2021/07/28 00:04:32;;;;;;;;;;;;;;;;;;1033334;28;20095;-80
2021/07/28 00:05:03;;;;;;;;;;;;;;;;;;1025336;29;19910;-79
2021/07/28 00:05:33;;;;;;;;;;;;;;;;;;1025385;28;20138;-79
2021/07/28 00:06:03;;;;;;;;;;;;;;;;;;1029671;28;20349;-79
2021/07/28 00:06:34;;;;;;;;;;;;;;;;;;1021744;28;19954;-81
2021/07/28 00:07:04;;;;;;;;;;;;;;;;;;1029607;28;20300;-81
2021/07/28 00:07:34;;;;;;;;;;;;;;;;;;1029650;28;19917;-81
2021/07/28 00:08:04;;;;;;;;;;;;;;;;;;1030029;28;20010;-81
2021/07/28 00:08:35;;;;;;;;;;;;;;;;;;1039280;28;19948;-81
2021/07/28 00:09:05;;;;;;;;;;;;;;;;;;1033993;28;19933;-80
2021/07/28 00:09:38;;;;;;;;;;;;;;;;;;1033732;28;20388;-79
2021/07/28 00:10:08;;;;;;;;;;;;;;;;;;1029264;28;19961;-81
2021/07/28 00:10:38;;;;;;;;;;;;;;;;;;1029659;28;19956;-80
2021/07/28 00:11:09;;;;;;;;;;;;;;;;;;1029367;28;19917;-82
2021/07/28 00:11:39;;;;;;;;;;;;;;;;;;1029243;28;19911;-78
2021/07/28 00:12:09;;;;;;;;;;;;;;;;;;1029118;28;19913;-80
2021/07/28 00:12:39;;;;;;;;;;;;;;;;;;1025299;28;19917;-81
2021/07/28 00:13:10;;;;;;;;;;;;;;;;;;1025005;28;20373;-79
2021/07/28 00:13:40;;;;;;;;;;;;;;;;;;1025244;28;19945;-80
2021/07/28 00:14:10;;;;;;;;;;;;;;;;;;1025026;28;19917;-79
2021/07/28 00:14:41;;;;;;;;;;;;;;;;;;1028987;28;19949;-78
2021/07/28 00:15:11;;;;;;;;;;;;;;;;;;1028890;28;19977;-79
2021/07/28 00:15:41;;;;;;;;;;;;;;;;;;1025218;28;20002;-80
2021/07/28 00:16:13;;;;;;;;;;;;;;;;;;1025144;28;19906;-80
2021/07/28 00:16:43;;;;;;;;;;;;;;;;;;1025478;28;19910;-82
2021/07/28 00:17:13;;;;;;;;;;;;;;;;;;1025362;28;19906;-80
2021/07/28 00:17:48;;;;;;;;;;;;;;;;;;1025177;29;20005;-80
2021/07/28 00:18:37;;;;;;;;;;;;;;;;;;1024927;29;19906;-79
2021/07/28 00:19:26;;;;;;;;;;;;;;;;;;1028099;28;19917;-80
2021/07/28 00:20:01;;;;;;;;;;;;;;;;;;1033249;28;19910;-80
2021/07/28 00:23:31;;;;;;;;;;;;;;;;;;1033504;28;19905;-78
2021/07/28 00:24:02;;;;;;;;;;;;;;;;;;1033085;28;19913;-78
2021/07/28 00:24:32;;;;;;;;;;;;;;;;;;1033084;28;20000;-79
2021/07/28 00:25:03;;;;;;;;;;;;;;;;;;1032859;28;19906;-81
2021/07/28 00:25:33;;;;;;;;;;;;;;;;;;1033266;28;19913;-79
2021/07/28 00:26:03;;;;;;;;;;;;;;;;;;1037083;28;19910;-79
2021/07/28 00:26:33;;;;;;;;;;;;;;;;;;1033015;28;19906;-80
2021/07/28 00:27:07;;;;;;;;;;;;;;;;;;1033208;28;19910;-79
2021/07/28 00:27:37;;;;;;;;;;;;;;;;;;1033039;28;20404;-78
2021/07/28 00:28:07;;;;;;;;;;;;;;;;;;1029442;28;19958;-79
2021/07/28 00:28:37;;;;;;;;;;;;;;;;;;1032827;28;20040;-79
2021/07/28 00:29:08;;;;;;;;;;;;;;;;;;1033164;28;20396;-79
2021/07/28 00:29:38;;;;;;;;;;;;;;;;;;1033506;28;19913;-80
2021/07/28 00:30:08;;;;;;;;;;;;;;;;;;1033594;28;20016;-80
2021/07/28 00:30:39;;;;;;;;;;;;;;;;;;1033617;28;19910;-80
2021/07/28 00:31:09;;;;;;;;;;;;;;;;;;1033489;28;20061;-80
2021/07/28 00:31:39;;;;;;;;;;;;;;;;;;1029631;28;19944;-82
2021/07/28 00:32:10;;;;;;;;;;;;;;;;;;1029589;28;19953;-80
2021/07/28 00:32:40;;;;;;;;;;;;;;;;;;1029412;28;19921;-80
2021/07/28 00:33:10;;;;;;;;;;;;;;;;;;1029747;28;19902;-81
2021/07/28 00:33:40;;;;;;;;;;;;;;;;;;1029642;28;19935;-80
2021/07/28 00:34:11;;;;;;;;;;;;;;;;;;1029777;28;19930;-80
2021/07/28 00:34:41;;;;;;;;;;;;;;;;;;1029624;28;19906;-80
2021/07/28 00:35:12;;;;;;;;;;;;;;;;;;1025339;28;19914;-80
2021/07/28 00:35:42;;;;;;;;;;;;;;;;;;1025509;28;19902;-80
2021/07/28 00:36:12;;;;;;;;;;;;;;;;;;1029427;28;19906;-80
2021/07/28 00:36:43;;;;;;;;;;;;;;;;;;1029687;28;19978;-80
2021/07/28 00:37:13;;;;;;;;;;;;;;;;;;1033540;28;19933;-80
2021/07/28 00:37:45;;;;;;;;;;;;;;;;;;1029314;28;19932;-80
2021/07/28 00:38:15;;;;;;;;;;;;;;;;;;1029188;28;19910;-80
2021/07/28 00:38:45;;;;;;;;;;;;;;;;;;1029820;28;19913;-80
2021/07/28 00:39:16;;;;;;;;;;;;;;;;;;1030094;28;19909;-80
2021/07/28 00:39:46;;;;;;;;;;;;;;;;;;1030444;28;20343;-80
2021/07/28 00:40:16;;;;;;;;;;;;;;;;;;1033741;28;19906;-80
2021/07/28 00:40:46;;;;;;;;;;;;;;;;;;1029835;28;20357;-79
2021/07/28 00:41:17;;;;;;;;;;;;;;;;;;1030000;28;19910;-81
2021/07/28 00:41:47;;;;;;;;;;;;;;;;;;1029791;28;19906;-79
2021/07/28 00:42:17;;;;;;;;;;;;;;;;;;1025674;28;19945;-79
2021/07/28 00:42:47;;;;;;;;;;;;;;;;;;1029703;28;20361;-81
2021/07/28 00:43:18;;;;;;;;;;;;;;;;;;1034125;28;19906;-80
2021/07/28 00:43:48;;;;;;;;;;;;;;;;;;1034522;28;19906;-82
2021/07/28 00:44:18;;;;;;;;;;;;;;;;;;1038896;28;19906;-79
2021/07/28 00:44:48;;;;;;;;;;;;;;;;;;1033451;28;19906;-82
2021/07/28 00:45:19;;;;;;;;;;;;;;;;;;1033363;28;19994;-81
2021/07/28 00:45:49;;;;;;;;;;;;;;;;;;1029672;28;19999;-79
2021/07/28 00:46:19;;;;;;;;;;;;;;;;;;1029660;28;19965;-80
2021/07/28 00:46:50;;;;;;;;;;;;;;;;;;1033451;28;19953;-80
2021/07/28 00:47:20;;;;;;;;;;;;;;;;;;1033121;28;19902;-79
2021/07/28 00:47:50;;;;;;;;;;;;;;;;;;1033215;28;19957;-80
2021/07/28 00:48:21;;;;;;;;;;;;;;;;;;1034034;28;19906;-80
2021/07/28 00:48:51;;;;;;;;;;;;;;;;;;1034047;28;20367;-80
2021/07/28 00:49:21;;;;;;;;;;;;;;;;;;1033732;28;19952;-81
2021/07/28 00:49:51;;;;;;;;;;;;;;;;;;1034163;28;20002;-79
2021/07/28 00:50:22;;;;;;;;;;;;;;;;;;1034248;28;19945;-81
2021/07/28 00:50:54;;;;;;;;;;;;;;;;;;1034590;28;19915;-80
2021/07/28 00:51:24;;;;;;;;;;;;;;;;;;1034510;28;19906;-82
2021/07/28 00:52:01;;;;;;;;;;;;;;;;;;1030510;28;19906;-80
2021/07/28 00:52:32;;;;;;;;;;;;;;;;;;1030149;28;20448;-82
2021/07/28 00:53:02;;;;;;;;;;;;;;;;;;1031454;28;19910;-81
2021/07/28 00:53:33;;;;;;;;;;;;;;;;;;1035908;28;20090;-80
2021/07/28 00:54:03;;;;;;;;;;;;;;;;;;1034568;28;19905;-82
2021/07/28 00:54:33;;;;;;;;;;;;;;;;;;1034779;28;19941;-81
2021/07/28 00:55:03;;;;;;;;;;;;;;;;;;1034178;28;19906;-79
2021/07/28 00:55:34;;;;;;;;;;;;;;;;;;1030668;28;19941;-80
2021/07/28 00:56:04;;;;;;;;;;;;;;;;;;1031138;28;19922;-80
2021/07/28 00:56:34;;;;;;;;;;;;;;;;;;1031318;28;19910;-80
2021/07/28 00:57:04;;;;;;;;;;;;;;;;;;1027755;28;19907;-80
2021/07/28 00:57:35;;;;;;;;;;;;;;;;;;1026747;28;20088;-80
2021/07/28 00:58:05;;;;;;;;;;;;;;;;;;1034914;28;19969;-80
2021/07/28 00:58:35;;;;;;;;;;;;;;;;;;1035140;28;19917;-80
2021/07/28 00:59:05;;;;;;;;;;;;;;;;;;1035011;28;19910;-81
2021/07/28 00:59:36;;;;;;;;;;;;;;;;;;1037122;28;19911;-81
2021/07/28 01:00:06;;;;;;;;;;;;;;;;;;1036737;28;19973;-81
2021/07/28 01:00:36;;;;;;;;;;;;;;;;;;1034747;28;19910;-80
2021/07/28 01:01:06;;;;;;;;;;;;;;;;;;1035107;28;20335;-81
2021/07/28 01:01:37;;;;;;;;;;;;;;;;;;1035182;28;19910;-82
2021/07/28 01:02:07;;;;;;;;;;;;;;;;;;1039102;28;19971;-80
2021/07/28 01:02:37;;;;;;;;;;;;;;;;;;1034931;28;19909;-80
2021/07/28 01:03:08;;;;;;;;;;;;;;;;;;1033522;28;19906;-80
2021/07/28 01:03:39;;;;;;;;;;;;;;;;;;1029621;28;19907;-80
2021/07/28 01:04:09;;;;;;;;;;;;;;;;;;1031016;28;20412;-80
2021/07/28 01:04:40;;;;;;;;;;;;;;;;;;1030559;28;19918;-80
2021/07/28 01:05:10;;;;;;;;;;;;;;;;;;1030990;28;20029;-80
2021/07/28 01:05:40;;;;;;;;;;;;;;;;;;1030622;28;19918;-79
2021/07/28 01:06:11;;;;;;;;;;;;;;;;;;1026674;29;19910;-80
2021/07/28 01:06:41;;;;;;;;;;;;;;;;;;1021879;29;19918;-80
2021/07/28 01:07:11;;;;;;;;;;;;;;;;;;1027006;28;19907;-82
2021/07/28 01:07:41;;;;;;;;;;;;;;;;;;1031542;28;19969;-82
2021/07/28 01:08:12;;;;;;;;;;;;;;;;;;1035232;28;19906;-80
2021/07/28 01:08:42;;;;;;;;;;;;;;;;;;1039000;28;19931;-81
2021/07/28 01:09:12;;;;;;;;;;;;;;;;;;1039380;28;19909;-80
2021/07/28 01:09:42;;;;;;;;;;;;;;;;;;1039683;28;19928;-80
2021/07/28 01:10:13;;;;;;;;;;;;;;;;;;1035393;28;19906;-81
2021/07/28 01:10:43;;;;;;;;;;;;;;;;;;1035174;28;19948;-81
2021/07/28 01:11:14;;;;;;;;;;;;;;;;;;1035099;28;19933;-80
2021/07/28 01:11:44;;;;;;;;;;;;;;;;;;1031146;28;19914;-80
2021/07/28 01:12:15;;;;;;;;;;;;;;;;;;1035464;28;19913;-82
2021/07/28 01:12:51;;;;;;;;;;;;;;;;;;1035554;28;20383;-80
2021/07/28 01:13:30;;;;;;;;;;;;;;;;;;1036583;28;19910;-80
2021/07/28 01:14:02;;;;;;;;;;;;;;;;;;1037469;28;19910;-80
2021/07/28 01:14:33;;;;;;;;;;;;;;;;;;1036600;28;19974;-79
2021/07/28 01:15:03;;;;;;;;;;;;;;;;;;1039094;28;20013;-82
2021/07/28 01:16:04;;;;;;;;;;;;;;;;;;1031094;28;19903;-79
2021/07/28 01:16:34;;;;;;;;;;;;;;;;;;1031338;28;19906;-80
2021/07/28 01:17:04;;;;;;;;;;;;;;;;;;1027892;28;19989;-80
2021/07/28 01:17:34;;;;;;;;;;;;;;;;;;1031440;28;19902;-79
2021/07/28 01:18:05;;;;;;;;;;;;;;;;;;1035771;28;19981;-80
2021/07/28 01:18:35;;;;;;;;;;;;;;;;;;1035890;28;19909;-79
2021/07/28 01:19:05;;;;;;;;;;;;;;;;;;1033176;28;19909;-79
2021/07/28 01:19:35;;;;;;;;;;;;;;;;;;1029526;28;19910;-80
2021/07/28 01:20:06;;;;;;;;;;;;;;;;;;1029183;28;19913;-79
2021/07/28 01:20:36;;;;;;;;;;;;;;;;;;1024912;29;19972;-78
2021/07/28 01:21:06;;;;;;;;;;;;;;;;;;1029042;28;19909;-79
2021/07/28 01:21:37;;;;;;;;;;;;;;;;;;1029213;28;19906;-79
2021/07/28 01:22:07;;;;;;;;;;;;;;;;;;1029731;28;19960;-85
2021/07/28 01:22:37;;;;;;;;;;;;;;;;;;1024787;28;19907;-85
2021/07/28 01:23:07;;;;;;;;;;;;;;;;;;1024917;28;19995;-85
2021/07/28 01:23:38;;;;;;;;;;;;;;;;;;1025024;28;20325;-85
2021/07/28 01:24:08;;;;;;;;;;;;;;;;;;1024847;28;19907;-80
2021/07/28 01:24:38;;;;;;;;;;;;;;;;;;1017673;29;20003;-81
2021/07/28 01:25:08;;;;;;;;;;;;;;;;;;1025350;29;19930;-81
2021/07/28 01:25:39;;;;;;;;;;;;;;;;;;1029641;28;19906;-81
2021/07/28 01:26:09;;;;;;;;;;;;;;;;;;1029410;28;20013;-81
2021/07/28 01:26:39;;;;;;;;;;;;;;;;;;1033515;28;19956;-81
2021/07/28 01:27:09;;;;;;;;;;;;;;;;;;1029584;28;19970;-80
2021/07/28 01:27:40;;;;;;;;;;;;;;;;;;1029544;28;19902;-81
2021/07/28 01:28:10;;;;;;;;;;;;;;;;;;1029312;28;19906;-80
2021/07/28 01:28:40;;;;;;;;;;;;;;;;;;1027982;28;20273;-80
2021/07/28 01:29:11;;;;;;;;;;;;;;;;;;1028111;29;19968;-81
2021/07/28 01:29:41;;;;;;;;;;;;;;;;;;1025384;28;19895;-81
2021/07/28 01:30:11;;;;;;;;;;;;;;;;;;1029288;28;19917;-82
2021/07/28 01:30:42;;;;;;;;;;;;;;;;;;1025249;28;20559;-83
2021/07/28 01:31:12;;;;;;;;;;;;;;;;;;1028995;28;19907;-82
2021/07/28 01:31:43;;;;;;;;;;;;;;;;;;1027290;28;19906;-83
2021/07/28 01:32:14;;;;;;;;;;;;;;;;;;1022255;28;19995;-80
2021/07/28 01:32:44;;;;;;;;;;;;;;;;;;1025723;29;19937;-81
2021/07/28 01:33:14;;;;;;;;;;;;;;;;;;1021576;29;20387;-80
2021/07/28 01:33:44;;;;;;;;;;;;;;;;;;1025640;28;19945;-80
2021/07/28 01:34:15;;;;;;;;;;;;;;;;;;1029856;28;19973;-80
2021/07/28 01:34:45;;;;;;;;;;;;;;;;;;1037657;28;19913;-81
2021/07/28 01:35:16;;;;;;;;;;;;;;;;;;1033484;28;19910;-80
2021/07/28 01:35:46;;;;;;;;;;;;;;;;;;1033983;28;19916;-80
2021/07/28 01:36:16;;;;;;;;;;;;;;;;;;1033935;28;19910;-83
2021/07/28 01:36:48;;;;;;;;;;;;;;;;;;1034030;28;19914;-81
2021/07/28 01:37:18;;;;;;;;;;;;;;;;;;1037592;28;19975;-82
2021/07/28 01:37:48;;;;;;;;;;;;;;;;;;1037739;28;20004;-81
2021/07/28 01:38:25;;;;;;;;;;;;;;;;;;1037726;28;20041;-81
2021/07/28 01:38:55;;;;;;;;;;;;;;;;;;1033722;28;20004;-81
2021/07/28 01:39:25;;;;;;;;;;;;;;;;;;1033591;28;19905;-81
2021/07/28 01:39:55;;;;;;;;;;;;;;;;;;1025566;28;19911;-81
2021/07/28 01:40:26;;;;;;;;;;;;;;;;;;1025600;29;19910;-81
2021/07/28 01:40:56;;;;;;;;;;;;;;;;;;1029819;28;19914;-81
2021/07/28 01:41:26;;;;;;;;;;;;;;;;;;1029788;28;20427;-82
2021/07/28 01:41:56;;;;;;;;;;;;;;;;;;1033561;28;19917;-82
2021/07/28 01:42:28;;;;;;;;;;;;;;;;;;1033724;28;19977;-82
2021/07/28 01:42:58;;;;;;;;;;;;;;;;;;1033602;28;19968;-82
2021/07/28 01:43:28;;;;;;;;;;;;;;;;;;1033539;28;19910;-82
2021/07/28 01:43:59;;;;;;;;;;;;;;;;;;1033615;28;19906;-81
2021/07/28 01:44:29;;;;;;;;;;;;;;;;;;1025807;28;19983;-82
2021/07/28 01:44:59;;;;;;;;;;;;;;;;;;1029653;28;19917;-81
2021/07/28 01:45:29;;;;;;;;;;;;;;;;;;1033595;28;19917;-82
2021/07/28 01:46:00;;;;;;;;;;;;;;;;;;1033449;28;19909;-81
2021/07/28 01:46:30;;;;;;;;;;;;;;;;;;1033722;28;19992;-82
2021/07/28 01:47:00;;;;;;;;;;;;;;;;;;1029656;28;19914;-81
2021/07/28 01:47:30;;;;;;;;;;;;;;;;;;1033544;28;19964;-81
2021/07/28 01:48:01;;;;;;;;;;;;;;;;;;1033906;28;19950;-80
2021/07/28 01:48:31;;;;;;;;;;;;;;;;;;1037909;28;19944;-81
2021/07/28 01:49:01;;;;;;;;;;;;;;;;;;1033471;28;19956;-81
2021/07/28 01:49:31;;;;;;;;;;;;;;;;;;1029900;28;19965;-81
2021/07/28 01:50:02;;;;;;;;;;;;;;;;;;1030019;28;19910;-81
2021/07/28 01:50:32;;;;;;;;;;;;;;;;;;1030029;28;19929;-81
2021/07/28 01:51:02;;;;;;;;;;;;;;;;;;1021606;28;19910;-81
2021/07/28 01:51:33;;;;;;;;;;;;;;;;;;1025885;28;19914;-81
2021/07/28 01:52:03;;;;;;;;;;;;;;;;;;1021761;28;19915;-82
2021/07/28 01:52:33;;;;;;;;;;;;;;;;;;1021684;29;20000;-81
2021/07/28 01:53:03;;;;;;;;;;;;;;;;;;1026091;29;19987;-80
2021/07/28 01:53:34;;;;;;;;;;;;;;;;;;1033965;28;19980;-81
2021/07/28 01:54:04;;;;;;;;;;;;;;;;;;1037680;28;19973;-82
2021/07/28 01:54:34;;;;;;;;;;;;;;;;;;1037718;28;19910;-82
2021/07/28 01:55:04;;;;;;;;;;;;;;;;;;1033605;28;19941;-82
2021/07/28 01:55:35;;;;;;;;;;;;;;;;;;1033922;28;19949;-81
2021/07/28 01:56:05;;;;;;;;;;;;;;;;;;1033755;28;20276;-81
2021/07/28 01:56:42;;;;;;;;;;;;;;;;;;1033829;28;19929;-82
2021/07/28 01:57:12;;;;;;;;;;;;;;;;;;1029963;28;19917;-82
2021/07/28 01:57:43;;;;;;;;;;;;;;;;;;1021867;29;20408;-82
2021/07/28 01:58:13;;;;;;;;;;;;;;;;;;1022367;29;19906;-81
2021/07/28 01:58:52;;;;;;;;;;;;;;;;;;1025760;28;19944;-82
2021/07/28 01:59:23;;;;;;;;;;;;;;;;;;1030900;28;19916;-81
2021/07/28 01:59:53;;;;;;;;;;;;;;;;;;1032238;28;19910;-82
2021/07/28 02:00:24;;;;;;;;;;;;;;;;;;1029624;28;19911;-82
2021/07/28 02:00:54;;;;;;;;;;;;;;;;;;1034616;28;19944;-82
2021/07/28 02:01:24;;;;;;;;;;;;;;;;;;1034719;28;19914;-81
2021/07/28 02:01:54;;;;;;;;;;;;;;;;;;1026218;28;19910;-82
2021/07/28 02:02:25;;;;;;;;;;;;;;;;;;1026615;28;19906;-81
2021/07/28 02:03:02;;;;;;;;;;;;;;;;;;1026507;28;19974;-81
2021/07/28 02:03:32;;;;;;;;;;;;;;;;;;1031089;28;19914;-81
2021/07/28 02:04:03;;;;;;;;;;;;;;;;;;1035352;28;19909;-81
2021/07/28 02:04:33;;;;;;;;;;;;;;;;;;1034314;28;19977;-81
2021/07/28 02:05:03;;;;;;;;;;;;;;;;;;1034688;28;19910;-82
2021/07/28 02:05:34;;;;;;;;;;;;;;;;;;1034559;28;20020;-81
2021/07/28 02:06:04;;;;;;;;;;;;;;;;;;1034526;28;20360;-82
2021/07/28 02:06:34;;;;;;;;;;;;;;;;;;1030234;28;19928;-80
2021/07/28 02:07:04;;;;;;;;;;;;;;;;;;1034650;28;19910;-81
2021/07/28 02:07:35;;;;;;;;;;;;;;;;;;1030300;28;20348;-81
2021/07/28 02:08:06;;;;;;;;;;;;;;;;;;1030426;28;19918;-81
2021/07/28 02:08:36;;;;;;;;;;;;;;;;;;1031036;28;19956;-81
2021/07/28 02:09:07;;;;;;;;;;;;;;;;;;1026989;28;19974;-81
2021/07/28 02:09:37;;;;;;;;;;;;;;;;;;1027074;29;20349;-81
2021/07/28 02:10:07;;;;;;;;;;;;;;;;;;1022558;28;19917;-82
2021/07/28 02:10:37;;;;;;;;;;;;;;;;;;1022148;28;19917;-81
2021/07/28 02:11:08;;;;;;;;;;;;;;;;;;1022541;29;19965;-81
2021/07/28 02:11:38;;;;;;;;;;;;;;;;;;1026051;29;20005;-81
2021/07/28 02:12:08;;;;;;;;;;;;;;;;;;1026138;29;19973;-81
2021/07/28 02:12:38;;;;;;;;;;;;;;;;;;1026450;28;19902;-82
2021/07/28 02:13:09;;;;;;;;;;;;;;;;;;1026317;28;19941;-81
2021/07/28 02:13:39;;;;;;;;;;;;;;;;;;1026497;28;20258;-81
2021/07/28 02:14:09;;;;;;;;;;;;;;;;;;1030178;28;19906;-82
2021/07/28 02:14:40;;;;;;;;;;;;;;;;;;1030358;28;19909;-81
2021/07/28 02:15:10;;;;;;;;;;;;;;;;;;1030441;28;19993;-81
2021/07/28 02:15:40;;;;;;;;;;;;;;;;;;1030663;28;20380;-82
2021/07/28 02:16:10;;;;;;;;;;;;;;;;;;1030714;28;19941;-81
2021/07/28 02:16:41;;;;;;;;;;;;;;;;;;1026262;28;19906;-82
2021/07/28 02:17:11;;;;;;;;;;;;;;;;;;1030635;28;19906;-81
2021/07/28 02:17:41;;;;;;;;;;;;;;;;;;1026968;28;19950;-80
2021/07/28 02:18:11;;;;;;;;;;;;;;;;;;1031000;28;19909;-80
2021/07/28 02:18:42;;;;;;;;;;;;;;;;;;1030963;28;19981;-83
2021/07/28 02:19:12;;;;;;;;;;;;;;;;;;1022101;28;20385;-82
2021/07/28 02:19:42;;;;;;;;;;;;;;;;;;1035396;23;19914;-81
2021/07/28 02:20:12;;;;;;;;;;;;;;;;;;1017528;29;19961;-81
2021/07/28 02:20:43;;;;;;;;;;;;;;;;;;1026735;28;20410;-83
2021/07/28 02:21:13;;;;;;;;;;;;;;;;;;1033685;28;19941;-81
2021/07/28 02:21:43;;;;;;;;;;;;;;;;;;1044342;23;19910;-81
2021/07/28 02:22:14;;;;;;;;;;;;;;;;;;1033040;28;19917;-85
2021/07/28 02:22:44;;;;;;;;;;;;;;;;;;1034702;28;19933;-82
2021/07/28 02:23:14;;;;;;;;;;;;;;;;;;1038960;23;19902;-81
2021/07/28 02:23:44;;;;;;;;;;;;;;;;;;1017754;29;20297;-81
2021/07/28 02:24:15;;;;;;;;;;;;;;;;;;1023096;29;19903;-81
2021/07/28 02:24:45;;;;;;;;;;;;;;;;;;1031084;28;19906;-81
2021/07/28 02:25:15;;;;;;;;;;;;;;;;;;1022676;29;19907;-81
2021/07/28 02:26:24;;;;;;;;;;;;;;;;;;1018831;29;19931;-82
2021/07/28 02:27:27;;;;;;;;;;;;;;;;;;1036928;28;19961;-82
2021/07/28 02:27:57;;;;;;;;;;;;;;;;;;1034947;28;19910;-81
2021/07/28 02:28:29;;;;;;;;;;;;;;;;;;1027906;28;19910;-82
2021/07/28 02:28:59;;;;;;;;;;;;;;;;;;1029148;28;19907;-82
2021/07/28 02:29:31;;;;;;;;;;;;;;;;;;1025009;29;19907;-82
2021/07/28 02:30:01;;;;;;;;;;;;;;;;;;1022886;29;19907;-82
2021/07/28 02:30:31;;;;;;;;;;;;;;;;;;1025681;29;19945;-82
2021/07/28 02:31:01;;;;;;;;;;;;;;;;;;1022069;29;19931;-83
2021/07/28 02:31:32;;;;;;;;;;;;;;;;;;1021672;29;19907;-82
2021/07/28 02:32:02;;;;;;;;;;;;;;;;;;1029651;28;19922;-82
2021/07/28 02:32:32;;;;;;;;;;;;;;;;;;1030251;28;20350;-82
2021/07/28 02:33:03;;;;;;;;;;;;;;;;;;1029911;28;20315;-81
2021/07/28 02:33:33;;;;;;;;;;;;;;;;;;1030151;28;19928;-81
2021/07/28 02:34:03;;;;;;;;;;;;;;;;;;1026483;29;19907;-81
2021/07/28 02:34:33;;;;;;;;;;;;;;;;;;1022621;29;19927;-81
2021/07/28 02:35:04;;;;;;;;;;;;;;;;;;1026278;28;19923;-82
2021/07/28 02:35:34;;;;;;;;;;;;;;;;;;1029952;28;19910;-82
2021/07/28 02:36:04;;;;;;;;;;;;;;;;;;1032189;28;19981;-81
2021/07/28 02:36:34;;;;;;;;;;;;;;;;;;1034065;28;19933;-81
2021/07/28 02:37:05;;;;;;;;;;;;;;;;;;1025606;28;19914;-81
2021/07/28 02:37:35;;;;;;;;;;;;;;;;;;1022782;29;19907;-81
2021/07/28 02:38:05;;;;;;;;;;;;;;;;;;1018322;29;20023;-81
2021/07/28 02:38:35;;;;;;;;;;;;;;;;;;1022709;29;19911;-82
2021/07/28 02:39:06;;;;;;;;;;;;;;;;;;1026199;29;19910;-81
2021/07/28 02:39:36;;;;;;;;;;;;;;;;;;1026600;29;19978;-81
2021/07/28 02:40:06;;;;;;;;;;;;;;;;;;1026504;29;19921;-82
2021/07/28 02:40:36;;;;;;;;;;;;;;;;;;1022421;29;20347;-82
2021/07/28 02:41:07;;;;;;;;;;;;;;;;;;1018619;29;19966;-81
2021/07/28 02:41:37;;;;;;;;;;;;;;;;;;1014663;29;20306;-81
2021/07/28 02:42:07;;;;;;;;;;;;;;;;;;1014940;29;19915;-83
2021/07/28 02:42:37;;;;;;;;;;;;;;;;;;1010974;29;19943;-82
2021/07/28 02:43:08;;;;;;;;;;;;;;;;;;1018735;29;19917;-82
2021/07/28 02:43:38;;;;;;;;;;;;;;;;;;1026216;29;20100;-81
2021/07/28 02:44:08;;;;;;;;;;;;;;;;;;1023029;29;19911;-81
2021/07/28 02:44:38;;;;;;;;;;;;;;;;;;1023011;29;19974;-81
2021/07/28 02:45:09;;;;;;;;;;;;;;;;;;1022771;29;19915;-81
2021/07/28 02:45:39;;;;;;;;;;;;;;;;;;1018429;29;20326;-80
2021/07/28 02:46:09;;;;;;;;;;;;;;;;;;1018690;29;19947;-81
2021/07/28 02:46:39;;;;;;;;;;;;;;;;;;1023147;29;19946;-81
2021/07/28 02:47:10;;;;;;;;;;;;;;;;;;1023071;29;19938;-81
2021/07/28 02:47:40;;;;;;;;;;;;;;;;;;1022831;29;19911;-83
2021/07/28 02:48:10;;;;;;;;;;;;;;;;;;1022860;29;19913;-81
2021/07/28 02:48:41;;;;;;;;;;;;;;;;;;1018915;29;19911;-80
2021/07/28 02:49:11;;;;;;;;;;;;;;;;;;1022800;29;19910;-81
2021/07/28 02:49:41;;;;;;;;;;;;;;;;;;1026937;29;20387;-81
2021/07/28 02:50:11;;;;;;;;;;;;;;;;;;1023061;29;19964;-80
2021/07/28 02:50:42;;;;;;;;;;;;;;;;;;1023260;29;19911;-81
2021/07/28 02:51:12;;;;;;;;;;;;;;;;;;1031122;28;20387;-81
2021/07/28 02:51:42;;;;;;;;;;;;;;;;;;1031423;28;20098;-81
2021/07/28 02:52:13;;;;;;;;;;;;;;;;;;1027044;29;20010;-81
2021/07/28 02:52:43;;;;;;;;;;;;;;;;;;1026980;29;19997;-82
2021/07/28 02:53:13;;;;;;;;;;;;;;;;;;1023036;29;19991;-80
2021/07/28 02:53:43;;;;;;;;;;;;;;;;;;1019359;29;20016;-82
2021/07/28 02:54:17;;;;;;;;;;;;;;;;;;1023162;29;19913;-81
2021/07/28 02:54:47;;;;;;;;;;;;;;;;;;1019575;29;20409;-81
2021/07/28 02:55:17;;;;;;;;;;;;;;;;;;1023601;29;19942;-80
2021/07/28 02:55:47;;;;;;;;;;;;;;;;;;1026891;28;19918;-80
2021/07/28 02:56:18;;;;;;;;;;;;;;;;;;1030692;28;19917;-81
2021/07/28 02:56:48;;;;;;;;;;;;;;;;;;1022708;29;19911;-80
2021/07/28 02:57:18;;;;;;;;;;;;;;;;;;1018806;29;19911;-80
2021/07/28 02:57:49;;;;;;;;;;;;;;;;;;1022827;29;19917;-80
2021/07/28 02:58:19;;;;;;;;;;;;;;;;;;1018397;29;19934;-81
2021/07/28 02:58:49;;;;;;;;;;;;;;;;;;1030549;28;19910;-81
2021/07/28 02:59:19;;;;;;;;;;;;;;;;;;1026803;29;20017;-80
2021/07/28 02:59:50;;;;;;;;;;;;;;;;;;1026666;28;19973;-82
2021/07/28 03:00:20;;;;;;;;;;;;;;;;;;1030622;28;19916;-81
2021/07/28 03:00:50;;;;;;;;;;;;;;;;;;1026107;28;19954;-82
2021/07/28 03:01:20;;;;;;;;;;;;;;;;;;1030216;28;19910;-80
2021/07/28 03:01:52;;;;;;;;;;;;;;;;;;1026309;28;19918;-81
2021/07/28 03:02:22;;;;;;;;;;;;;;;;;;1030204;28;20461;-79
2021/07/28 03:02:52;;;;;;;;;;;;;;;;;;1029535;28;19950;-80
2021/07/28 03:03:23;;;;;;;;;;;;;;;;;;1022074;29;19997;-79
2021/07/28 03:03:53;;;;;;;;;;;;;;;;;;1022055;29;20049;-79
2021/07/28 03:04:23;;;;;;;;;;;;;;;;;;1021360;29;20337;-79
2021/07/28 03:04:54;;;;;;;;;;;;;;;;;;1021186;29;20025;-80
2021/07/28 03:05:24;;;;;;;;;;;;;;;;;;1028135;28;19941;-79
2021/07/28 03:05:54;;;;;;;;;;;;;;;;;;1025578;28;20012;-79
2021/07/28 03:06:25;;;;;;;;;;;;;;;;;;1025946;29;19914;-79
2021/07/28 03:06:55;;;;;;;;;;;;;;;;;;1025350;29;19985;-79
2021/07/28 03:07:25;;;;;;;;;;;;;;;;;;1029526;28;20324;-79
2021/07/28 03:07:56;;;;;;;;;;;;;;;;;;1029856;28;19914;-80
2021/07/28 03:08:26;;;;;;;;;;;;;;;;;;1026170;29;19941;-81
2021/07/28 03:08:56;;;;;;;;;;;;;;;;;;1026118;28;20506;-81
2021/07/28 03:09:27;;;;;;;;;;;;;;;;;;1022133;29;19922;-80
2021/07/28 03:09:57;;;;;;;;;;;;;;;;;;1030292;28;19910;-80
2021/07/28 03:10:27;;;;;;;;;;;;;;;;;;1026710;28;19973;-80
2021/07/28 03:10:59;;;;;;;;;;;;;;;;;;1034279;28;19910;-80
2021/07/28 03:11:29;;;;;;;;;;;;;;;;;;1030032;28;19910;-79
2021/07/28 03:11:59;;;;;;;;;;;;;;;;;;1026972;29;19918;-80
2021/07/28 03:12:29;;;;;;;;;;;;;;;;;;1026276;29;19941;-80
2021/07/28 03:13:00;;;;;;;;;;;;;;;;;;1025679;28;19911;-79
2021/07/28 03:13:30;;;;;;;;;;;;;;;;;;1030555;28;19974;-80
2021/07/28 03:14:00;;;;;;;;;;;;;;;;;;1030604;28;19946;-78
2021/07/28 03:14:30;;;;;;;;;;;;;;;;;;1034361;28;19906;-80
2021/07/28 03:15:01;;;;;;;;;;;;;;;;;;1031380;28;19909;-80
2021/07/28 03:15:31;;;;;;;;;;;;;;;;;;1029633;29;19937;-81
2021/07/28 03:16:01;;;;;;;;;;;;;;;;;;1033726;28;19890;-80
2021/07/28 03:16:32;;;;;;;;;;;;;;;;;;1036966;28;19905;-84
2021/07/28 03:17:02;;;;;;;;;;;;;;;;;;1033548;28;19895;-81
2021/07/28 03:17:32;;;;;;;;;;;;;;;;;;1041044;28;19906;-80
2021/07/28 03:18:02;;;;;;;;;;;;;;;;;;1030770;28;19934;-80
2021/07/28 03:18:33;;;;;;;;;;;;;;;;;;1028041;28;19907;-80
2021/07/28 03:19:03;;;;;;;;;;;;;;;;;;1035222;28;19910;-80
2021/07/28 03:19:33;;;;;;;;;;;;;;;;;;1026274;29;19906;-81
2021/07/28 03:20:03;;;;;;;;;;;;;;;;;;1025127;28;20260;-81
2021/07/28 03:20:34;;;;;;;;;;;;;;;;;;1025353;29;19957;-80
2021/07/28 03:21:04;;;;;;;;;;;;;;;;;;1029062;28;19993;-80
2021/07/28 03:21:34;;;;;;;;;;;;;;;;;;1029123;28;19969;-80
2021/07/28 03:22:04;;;;;;;;;;;;;;;;;;1033334;28;20362;-80
2021/07/28 03:22:35;;;;;;;;;;;;;;;;;;1033130;28;19952;-80
2021/07/28 03:23:05;;;;;;;;;;;;;;;;;;1029101;28;19917;-82
2021/07/28 03:23:35;;;;;;;;;;;;;;;;;;1029368;28;20335;-80
2021/07/28 03:24:05;;;;;;;;;;;;;;;;;;1029560;28;19965;-80
2021/07/28 03:24:36;;;;;;;;;;;;;;;;;;1029257;28;19911;-80
2021/07/28 03:25:06;;;;;;;;;;;;;;;;;;1025395;28;19949;-80
2021/07/28 03:25:36;;;;;;;;;;;;;;;;;;1025236;28;20006;-79
2021/07/28 03:26:06;;;;;;;;;;;;;;;;;;1029466;28;19906;-79
2021/07/28 03:26:37;;;;;;;;;;;;;;;;;;1033354;28;19997;-79
2021/07/28 03:27:07;;;;;;;;;;;;;;;;;;1033331;28;19933;-81
2021/07/28 03:27:37;;;;;;;;;;;;;;;;;;1029538;28;19906;-79
2021/07/28 03:28:07;;;;;;;;;;;;;;;;;;1021246;28;19998;-79
2021/07/28 03:28:38;;;;;;;;;;;;;;;;;;1025612;29;19942;-80
2021/07/28 03:29:08;;;;;;;;;;;;;;;;;;1029237;28;19950;-81
2021/07/28 03:29:38;;;;;;;;;;;;;;;;;;1025274;28;19903;-81
2021/07/28 03:30:08;;;;;;;;;;;;;;;;;;1029457;28;19906;-81
2021/07/28 03:30:39;;;;;;;;;;;;;;;;;;1025443;29;19990;-79
2021/07/28 03:31:09;;;;;;;;;;;;;;;;;;1021370;29;19935;-80
2021/07/28 03:31:39;;;;;;;;;;;;;;;;;;1025461;29;20368;-80
2021/07/28 03:32:09;;;;;;;;;;;;;;;;;;1025308;28;19942;-80
2021/07/28 03:32:40;;;;;;;;;;;;;;;;;;1013929;29;19975;-79
2021/07/28 03:33:10;;;;;;;;;;;;;;;;;;1024147;29;19910;-80